Time;durP1;ratioP1;P1;durP2;ratioP2;P2;SDS_P1;SDS_P2;PMS_P1;PMS_P2;Temp;Humidity;BMP_temperature;BMP_pressure;BME280_temperature;BME280_humidity;BME280_pressure;Samples;Min_cycle;Max_cycle;Signal;HPM_P1;HPM_P2
2022/05/24 00:01:13;;;;;;;1.50;1.00;;;;;;;;;;5025363;28;20044;-71
2022/05/24 00:03:38;;;;;;;1.35;1.00;;;;;;;;;;5027365;28;20044;-71
2022/05/24 00:06:05;;;;;;;4.55;1.23;;;;;;;;;;5026455;28;20099;-70
2022/05/24 00:08:30;;;;;;;1.10;0.90;;;;;;;;;;5025758;28;20107;-72
2022/05/24 00:10:56;;;;;;;3.80;1.38;;;;;;;;;;5026142;28;20048;-71
2022/05/24 00:13:21;;;;;;;2.72;1.15;;;;;;;;;;5027557;28;20086;-72
2022/05/24 00:15:47;;;;;;;3.90;1.35;;;;;;;;;;5026578;28;20037;-71
2022/05/24 00:18:22;;;;;;;3.00;1.60;;;;;;;;;;5025256;28;20044;-70
2022/05/24 00:20:55;;;;;;;2.10;1.45;;;;;;;;;;5025975;28;20037;-71
2022/05/24 00:23:23;;;;;;;6.68;1.73;;;;;;;;;;5026434;28;20029;-72
2022/05/24 00:25:52;;;;;;;2.78;1.67;;;;;;;;;;5026662;28;20060;-71
2022/05/24 00:28:20;;;;;;;10.13;1.73;;;;;;;;;;5025168;28;20579;-72
2022/05/24 00:30:47;;;;;;;5.32;1.58;;;;;;;;;;5026028;28;20045;-71
2022/05/24 00:33:13;;;;;;;4.43;1.80;;;;;;;;;;5027307;28;20439;-71
2022/05/24 00:35:39;;;;;;;2.60;1.58;;;;;;;;;;5024873;28;20075;-72
2022/05/24 00:38:07;;;;;;;3.28;2.05;;;;;;;;;;5026378;28;20039;-72
2022/05/24 00:40:45;;;;;;;3.25;1.88;;;;;;;;;;5002199;28;20097;-70
2022/05/24 00:43:29;;;;;;;7.43;2.03;;;;;;;;;;5020667;28;20033;-71
2022/05/24 00:46:03;;;;;;;3.13;1.75;;;;;;;;;;5023495;28;20048;-73
2022/05/24 00:48:33;;;;;;;1.85;1.70;;;;;;;;;;5025759;28;20041;-73
2022/05/24 00:51:01;;;;;;;4.15;1.85;;;;;;;;;;5007344;28;20041;-72
2022/05/24 00:53:49;;;;;;;2.72;1.90;;;;;;;;;;5026692;28;20033;-70
2022/05/24 00:56:34;;;;;;;6.30;2.00;;;;;;;;;;5024147;28;20591;-73
2022/05/24 00:59:04;;;;;;;3.38;2.15;;;;;;;;;;5026307;28;20029;-73
2022/05/24 01:01:39;;;;;;;8.00;2.00;;;;;;;;;;5025666;28;20040;-73
2022/05/24 01:04:07;;;;;;;3.85;1.83;;;;;;;;;;5025267;28;20619;-74
2022/05/24 01:06:33;;;;;;;2.42;1.52;;;;;;;;;;5023818;28;20040;-72
2022/05/24 01:09:03;;;;;;;1.67;1.58;;;;;;;;;;5024985;28;20048;-72
2022/05/24 01:11:30;;;;;;;5.13;2.30;;;;;;;;;;5024970;28;20036;-72
2022/05/24 01:13:58;;;;;;;4.50;1.85;;;;;;;;;;5024682;28;20558;-72
2022/05/24 01:16:23;;;;;;;2.78;1.63;;;;;;;;;;5024809;28;20474;-72
2022/05/24 01:18:49;;;;;;;6.40;1.50;;;;;;;;;;5023902;28;20040;-73
2022/05/24 01:21:17;;;;;;;3.75;1.88;;;;;;;;;;5023651;28;20665;-72
2022/05/24 01:23:48;;;;;;;3.00;1.52;;;;;;;;;;5025177;28;20128;-72
2022/05/24 01:26:37;;;;;;;6.70;1.95;;;;;;;;;;5022866;28;20331;-73
2022/05/24 01:29:06;;;;;;;2.85;1.60;;;;;;;;;;5023293;28;20621;-74
2022/05/24 01:37:03;;;;;;;2.08;1.77;;;;;;;;;;5023184;28;20629;-72
2022/05/24 01:39:29;;;;;;;1.60;1.50;;;;;;;;;;5023338;28;20041;-72
2022/05/24 01:41:55;;;;;;;1.98;1.77;;;;;;;;;;5018820;28;20784;-73
2022/05/24 01:44:46;;;;;;;3.00;1.65;;;;;;;;;;5024538;28;20421;-73
2022/05/24 01:47:12;;;;;;;2.17;1.73;;;;;;;;;;5024504;28;20961;-74
2022/05/24 01:49:41;;;;;;;2.80;1.75;;;;;;;;;;5020712;28;20041;-73
2022/05/24 01:52:18;;;;;;;3.13;1.60;;;;;;;;;;5006178;28;20060;-73
2022/05/24 01:54:49;;;;;;;3.70;1.60;;;;;;;;;;5021931;28;20051;-74
2022/05/24 01:57:37;;;;;;;4.28;1.85;;;;;;;;;;5023126;28;20040;-74
2022/05/24 02:00:07;;;;;;;6.95;1.77;;;;;;;;;;5024771;28;20157;-71
2022/05/24 02:02:33;;;;;;;4.47;2.20;;;;;;;;;;5024443;28;20041;-74
2022/05/24 02:04:58;;;;;;;3.60;1.67;;;;;;;;;;5024260;28;20029;-72
2022/05/24 02:07:25;;;;;;;5.13;2.10;;;;;;;;;;5024571;28;20045;-73
2022/05/24 02:09:53;;;;;;;5.43;1.95;;;;;;;;;;5004167;28;20136;-73
2022/05/24 02:12:20;;;;;;;2.92;2.05;;;;;;;;;;5025512;28;20052;-72
2022/05/24 02:14:53;;;;;;;5.35;2.10;;;;;;;;;;5024567;28;20519;-73
2022/05/24 02:17:39;;;;;;;6.05;2.00;;;;;;;;;;5023831;28;20021;-73
2022/05/24 02:20:08;;;;;;;5.22;2.40;;;;;;;;;;5024044;28;20083;-73
2022/05/24 02:22:33;;;;;;;2.03;1.83;;;;;;;;;;5020938;28;20567;-72
2022/05/24 02:25:12;;;;;;;2.80;2.00;;;;;;;;;;5023531;28;20041;-73
2022/05/24 02:27:43;;;;;;;2.65;1.77;;;;;;;;;;5022785;28;20044;-73
2022/05/24 02:30:10;;;;;;;3.63;2.40;;;;;;;;;;5023421;28;20639;-73
2022/05/24 02:32:35;;;;;;;3.63;2.15;;;;;;;;;;5024972;28;20041;-73
2022/05/24 02:35:00;;;;;;;7.88;2.38;;;;;;;;;;5024333;28;20036;-73
2022/05/24 02:37:26;;;;;;;2.60;2.03;;;;;;;;;;5023734;28;20148;-73
2022/05/24 02:42:35;;;;;;;4.18;2.38;;;;;;;;;;5024274;28;20124;-73
2022/05/24 02:45:01;;;;;;;3.83;2.30;;;;;;;;;;5022871;28;20399;-73
2022/05/24 02:47:26;;;;;;;6.60;2.40;;;;;;;;;;5022768;28;20116;-73
2022/05/24 02:49:51;;;;;;;3.55;2.20;;;;;;;;;;5022344;28;20147;-73
2022/05/24 02:52:17;;;;;;;3.17;2.05;;;;;;;;;;5022413;28;20045;-71
2022/05/24 02:54:42;;;;;;;5.95;2.15;;;;;;;;;;5024036;28;20037;-72
2022/05/24 02:57:07;;;;;;;5.10;2.50;;;;;;;;;;5023251;28;20041;-73
2022/05/24 02:59:33;;;;;;;5.00;2.80;;;;;;;;;;5022434;28;20512;-73
2022/05/24 03:01:59;;;;;;;7.40;2.78;;;;;;;;;;5024056;28;20028;-73
2022/05/24 03:04:24;;;;;;;3.28;2.80;;;;;;;;;;5024266;28;20044;-73
2022/05/24 03:09:33;;;;;;;5.20;2.55;;;;;;;;;;5023843;28;20107;-72
2022/05/24 03:14:43;;;;;;;9.40;3.00;;;;;;;;;;5024286;28;20051;-74
2022/05/24 03:17:08;;;;;;;9.07;2.97;;;;;;;;;;5025051;28;20029;-72
2022/05/24 03:19:34;;;;;;;4.65;2.70;;;;;;;;;;5026457;28;20037;-72
2022/05/24 03:22:00;;;;;;;5.25;2.70;;;;;;;;;;5022339;28;20046;-72
2022/05/24 03:24:25;;;;;;;8.23;3.47;;;;;;;;;;5021784;28;20853;-72
2022/05/24 03:26:51;;;;;;;9.73;3.00;;;;;;;;;;5024450;28;20779;-72
2022/05/24 03:29:17;;;;;;;3.35;2.60;;;;;;;;;;5023986;28;20124;-72
2022/05/24 03:31:42;;;;;;;4.47;3.13;;;;;;;;;;5025202;28;20106;-72
2022/05/24 03:34:07;;;;;;;9.25;3.08;;;;;;;;;;5022760;28;20040;-72
2022/05/24 03:36:33;;;;;;;5.40;3.20;;;;;;;;;;5023561;28;20382;-72
2022/05/24 03:38:59;;;;;;;5.82;3.58;;;;;;;;;;5019904;28;20048;-71
2022/05/24 03:41:25;;;;;;;6.65;3.22;;;;;;;;;;5023503;28;20489;-73
2022/05/24 03:43:50;;;;;;;7.78;3.10;;;;;;;;;;5023016;28;20028;-73
2022/05/24 03:46:16;;;;;;;3.85;2.92;;;;;;;;;;5023916;28;20057;-73
2022/05/24 03:48:42;;;;;;;6.50;3.38;;;;;;;;;;5021198;28;20037;-73
2022/05/24 03:51:08;;;;;;;4.43;2.55;;;;;;;;;;5021526;28;20033;-72
2022/05/24 03:53:34;;;;;;;6.53;3.20;;;;;;;;;;5023590;28;20036;-73
2022/05/24 03:55:59;;;;;;;12.68;3.40;;;;;;;;;;5023394;28;20086;-73
2022/05/24 03:58:25;;;;;;;5.57;3.50;;;;;;;;;;5005940;28;20502;-72
2022/05/24 04:00:51;;;;;;;4.68;3.20;;;;;;;;;;5021760;28;20693;-73
2022/05/24 04:03:17;;;;;;;3.92;3.00;;;;;;;;;;5027007;28;20041;-73
2022/05/24 04:05:43;;;;;;;4.32;3.45;;;;;;;;;;5026520;28;20512;-72
2022/05/24 04:08:09;;;;;;;7.30;3.60;;;;;;;;;;5027073;28;20032;-74
2022/05/24 04:10:35;;;;;;;5.53;3.90;;;;;;;;;;5024200;28;20045;-72
2022/05/24 04:13:01;;;;;;;5.53;4.10;;;;;;;;;;5026591;28;20041;-73
2022/05/24 04:15:27;;;;;;;7.88;4.03;;;;;;;;;;5026252;28;20045;-72
2022/05/24 04:17:53;;;;;;;7.10;4.25;;;;;;;;;;5027340;28;20082;-73
2022/05/24 04:20:20;;;;;;;7.28;4.07;;;;;;;;;;5026584;28;20162;-72
2022/05/24 04:22:46;;;;;;;12.23;4.07;;;;;;;;;;5027137;28;20501;-71
2022/05/24 04:25:13;;;;;;;5.70;4.35;;;;;;;;;;5026294;28;20053;-71
2022/05/24 04:27:38;;;;;;;9.13;4.63;;;;;;;;;;5026154;28;22494;-73
2022/05/24 04:30:06;;;;;;;11.07;5.00;;;;;;;;;;5026982;28;20033;-72
2022/05/24 04:32:31;;;;;;;9.02;5.30;;;;;;;;;;5026660;28;20095;-72
2022/05/24 04:34:57;;;;;;;6.50;5.00;;;;;;;;;;5026725;28;20478;-72
2022/05/24 04:37:23;;;;;;;5.60;5.10;;;;;;;;;;5026350;28;20110;-71
2022/05/24 04:39:49;;;;;;;7.85;4.97;;;;;;;;;;5026376;28;20037;-74
2022/05/24 04:42:21;;;;;;;7.13;5.22;;;;;;;;;;5025793;28;20104;-73
2022/05/24 04:44:50;;;;;;;6.20;5.60;;;;;;;;;;5026410;28;20041;-73
2022/05/24 04:47:17;;;;;;;8.32;5.00;;;;;;;;;;5025800;28;20029;-73
2022/05/24 04:49:50;;;;;;;7.50;5.13;;;;;;;;;;5025617;28;20043;-73
2022/05/24 04:52:15;;;;;;;9.98;5.22;;;;;;;;;;5025227;28;20028;-73
2022/05/24 04:54:42;;;;;;;8.35;5.93;;;;;;;;;;5025772;28;20323;-73
2022/05/24 04:57:08;;;;;;;8.75;5.30;;;;;;;;;;5026604;28;20083;-73
2022/05/24 04:59:34;;;;;;;8.57;5.43;;;;;;;;;;5026282;28;20033;-73
2022/05/24 05:02:00;;;;;;;7.35;5.32;;;;;;;;;;5024366;28;20040;-73
2022/05/24 05:04:25;;;;;;;8.13;5.10;;;;;;;;;;5027232;28;20475;-73
2022/05/24 05:06:51;;;;;;;6.07;5.07;;;;;;;;;;5027464;28;20051;-73
2022/05/24 05:09:17;;;;;;;5.50;4.68;;;;;;;;;;5026570;28;20040;-73
2022/05/24 05:11:43;;;;;;;6.07;4.60;;;;;;;;;;5027383;28;20037;-73
2022/05/24 05:14:09;;;;;;;10.88;4.78;;;;;;;;;;5026248;28;20033;-72
2022/05/24 05:16:38;;;;;;;5.13;3.72;;;;;;;;;;5026997;28;20509;-73
2022/05/24 05:19:05;;;;;;;6.15;4.30;;;;;;;;;;5025476;28;20404;-73
2022/05/24 05:21:32;;;;;;;4.03;3.70;;;;;;;;;;5026090;28;20555;-73
2022/05/24 05:23:58;;;;;;;5.50;4.00;;;;;;;;;;5025616;28;20040;-73
2022/05/24 05:26:24;;;;;;;3.85;3.55;;;;;;;;;;5027279;28;20071;-72
2022/05/24 05:28:49;;;;;;;5.65;3.53;;;;;;;;;;5025778;28;20758;-73
2022/05/24 05:31:19;;;;;;;4.65;3.60;;;;;;;;;;5026276;28;20037;-72
2022/05/24 05:33:45;;;;;;;5.75;3.42;;;;;;;;;;5007913;28;20033;-72
2022/05/24 05:36:11;;;;;;;5.80;3.05;;;;;;;;;;5024901;28;20033;-72
2022/05/24 05:38:37;;;;;;;3.92;2.13;;;;;;;;;;5006382;28;20045;-72
2022/05/24 05:41:04;;;;;;;7.28;2.00;;;;;;;;;;5023769;28;20541;-73
2022/05/24 05:43:29;;;;;;;1.60;1.50;;;;;;;;;;5024686;28;20048;-74
2022/05/24 05:45:57;;;;;;;3.72;1.70;;;;;;;;;;5024407;28;20402;-73
2022/05/24 05:48:23;;;;;;;2.08;1.20;;;;;;;;;;5026775;28;20033;-73
2022/05/24 05:50:49;;;;;;;1.98;1.35;;;;;;;;;;5025337;28;20102;-73
2022/05/24 05:53:16;;;;;;;1.90;1.58;;;;;;;;;;5025379;28;20043;-72
2022/05/24 05:55:41;;;;;;;2.60;1.48;;;;;;;;;;5026188;28;20127;-72
2022/05/24 05:58:07;;;;;;;2.75;1.52;;;;;;;;;;5024015;28;20033;-73
2022/05/24 06:00:33;;;;;;;1.70;1.60;;;;;;;;;;5024876;28;20107;-73
2022/05/24 06:02:59;;;;;;;3.78;1.55;;;;;;;;;;5024217;28;20574;-73
2022/05/24 06:05:25;;;;;;;3.08;1.80;;;;;;;;;;5023355;28;20041;-72
2022/05/24 06:07:50;;;;;;;2.83;1.83;;;;;;;;;;5027006;28;20040;-72
2022/05/24 06:10:15;;;;;;;2.58;0.80;;;;;;;;;;5024784;28;20592;-73
2022/05/24 06:12:42;;;;;;;0.75;0.60;;;;;;;;;;5024782;28;20040;-72
2022/05/24 06:15:08;;;;;;;1.05;0.80;;;;;;;;;;5024312;28;20132;-72
2022/05/24 06:17:42;;;;;;;1.48;0.60;;;;;;;;;;5025113;28;20475;-71
2022/05/24 06:20:08;;;;;;;0.73;0.73;;;;;;;;;;5026032;28;20475;-72
2022/05/24 06:22:34;;;;;;;2.83;0.80;;;;;;;;;;5023819;28;22570;-71
2022/05/24 06:24:59;;;;;;;1.80;0.75;;;;;;;;;;5023910;28;20139;-72
2022/05/24 06:27:25;;;;;;;2.45;1.48;;;;;;;;;;5024626;28;22568;-71
2022/05/24 06:29:51;;;;;;;0.60;0.60;;;;;;;;;;5025561;28;20405;-72
2022/05/24 06:32:17;;;;;;;2.05;0.60;;;;;;;;;;5007294;28;20060;-72
2022/05/24 06:34:42;;;;;;;1.17;0.52;;;;;;;;;;5025931;28;20858;-71
2022/05/24 06:37:08;;;;;;;2.33;0.90;;;;;;;;;;5025447;28;20044;-72
2022/05/24 06:39:33;;;;;;;1.00;0.45;;;;;;;;;;5024827;28;20098;-72
2022/05/24 06:41:59;;;;;;;2.42;1.00;;;;;;;;;;5025976;28;20136;-72
2022/05/24 06:44:25;;;;;;;2.05;0.70;;;;;;;;;;5024914;28;20428;-72
2022/05/24 06:46:50;;;;;;;1.48;0.55;;;;;;;;;;5024308;28;22614;-72
2022/05/24 06:49:15;;;;;;;1.30;0.60;;;;;;;;;;5023532;28;20051;-71
2022/05/24 06:51:43;;;;;;;0.52;0.50;;;;;;;;;;5021635;28;20063;-72
2022/05/24 06:54:08;;;;;;;1.25;0.40;;;;;;;;;;5022226;28;20504;-72
2022/05/24 06:56:33;;;;;;;3.13;0.60;;;;;;;;;;5024238;28;20048;-72
2022/05/24 07:04:26;;;;;;;1.35;0.73;;;;;;;;;;5024480;28;20417;-71
2022/05/24 07:06:51;;;;;;;1.45;0.70;;;;;;;;;;5023199;28;20053;-71
2022/05/24 07:09:17;;;;;;;1.95;0.68;;;;;;;;;;5024383;28;20033;-71
2022/05/24 07:11:42;;;;;;;4.28;0.60;;;;;;;;;;5024108;28;20045;-71
2022/05/24 07:14:07;;;;;;;0.90;0.70;;;;;;;;;;5024471;28;20037;-72
2022/05/24 07:16:33;;;;;;;2.35;0.63;;;;;;;;;;5025403;28;20048;-72
2022/05/24 07:18:58;;;;;;;1.08;0.60;;;;;;;;;;5022286;28;22597;-72
2022/05/24 07:21:23;;;;;;;0.75;0.50;;;;;;;;;;5024145;28;20512;-71
2022/05/24 07:23:49;;;;;;;0.50;0.50;;;;;;;;;;5019936;28;20060;-71
2022/05/24 07:26:18;;;;;;;0.80;0.50;;;;;;;;;;5023740;28;20029;-71
2022/05/24 07:28:43;;;;;;;1.25;0.60;;;;;;;;;;5025615;28;20362;-72
2022/05/24 07:31:09;;;;;;;3.55;0.50;;;;;;;;;;5023233;28;20518;-70
2022/05/24 07:33:36;;;;;;;1.42;0.50;;;;;;;;;;5020507;28;20048;-71
2022/05/24 07:36:02;;;;;;;6.03;0.70;;;;;;;;;;5024155;28;20080;-72
2022/05/24 07:38:27;;;;;;;3.35;0.40;;;;;;;;;;5023827;28;20131;-71
2022/05/24 07:46:22;;;;;;;1.35;0.50;;;;;;;;;;5025519;28;20948;-71
2022/05/24 07:48:47;;;;;;;1.77;0.82;;;;;;;;;;5026311;28;20045;-72
2022/05/24 07:51:13;;;;;;;1.08;0.50;;;;;;;;;;5025471;28;22986;-71
2022/05/24 07:53:38;;;;;;;1.85;0.55;;;;;;;;;;5027511;28;20498;-72
2022/05/24 07:56:05;;;;;;;1.05;0.35;;;;;;;;;;5025608;28;20033;-72
2022/05/24 07:58:30;;;;;;;1.85;0.60;;;;;;;;;;5026867;28;20028;-72
2022/05/24 08:00:58;;;;;;;0.30;0.30;;;;;;;;;;5028751;28;20040;-72
2022/05/24 08:03:23;;;;;;;1.75;0.40;;;;;;;;;;5026533;28;20120;-72
2022/05/24 08:05:49;;;;;;;6.15;0.50;;;;;;;;;;5011642;28;20568;-72
2022/05/24 08:08:14;;;;;;;2.13;0.40;;;;;;;;;;5031123;28;20112;-71
2022/05/24 08:10:41;;;;;;;1.13;0.43;;;;;;;;;;5026913;28;20495;-71
2022/05/24 08:13:09;;;;;;;0.90;0.43;;;;;;;;;;5011941;28;20527;-71
2022/05/24 08:15:34;;;;;;;0.47;0.25;;;;;;;;;;5025746;28;20041;-73
2022/05/24 08:18:00;;;;;;;0.90;0.35;;;;;;;;;;5030088;28;20071;-72
2022/05/24 08:20:27;;;;;;;0.77;0.32;;;;;;;;;;5030063;28;20536;-72
2022/05/24 08:22:52;;;;;;;0.85;0.38;;;;;;;;;;5030094;28;20037;-72
2022/05/24 08:25:18;;;;;;;0.63;0.30;;;;;;;;;;5030173;28;20445;-72
2022/05/24 08:27:44;;;;;;;0.30;0.30;;;;;;;;;;5029362;28;20522;-72
2022/05/24 08:30:12;;;;;;;0.45;0.20;;;;;;;;;;5027977;28;20563;-72
2022/05/24 08:32:38;;;;;;;1.35;0.50;;;;;;;;;;5028269;28;20128;-72
2022/05/24 08:35:06;;;;;;;0.63;0.30;;;;;;;;;;5026649;28;21133;-72
2022/05/24 08:37:31;;;;;;;2.10;0.43;;;;;;;;;;5026894;28;20068;-72
2022/05/24 08:39:59;;;;;;;1.15;0.55;;;;;;;;;;5029932;28;20036;-71
2022/05/24 08:42:40;;;;;;;1.13;0.30;;;;;;;;;;5027066;28;20483;-72
2022/05/24 08:48:25;;;;;;;0.20;0.20;;;;;;;;;;5028212;28;20658;-72
2022/05/24 08:50:57;;;;;;;0.60;0.20;;;;;;;;;;5028567;28;20507;-72
2022/05/24 08:53:32;;;;;;;1.20;0.38;;;;;;;;;;5027162;28;20056;-70
2022/05/24 08:55:59;;;;;;;0.47;0.30;;;;;;;;;;5009890;28;20558;-72
2022/05/24 08:58:32;;;;;;;0.90;0.40;;;;;;;;;;5024011;28;20132;-72
2022/05/24 09:00:58;;;;;;;0.82;0.30;;;;;;;;;;5025531;28;21554;-72
2022/05/24 09:03:25;;;;;;;1.27;0.40;;;;;;;;;;5027749;28;20041;-72
2022/05/24 09:06:08;;;;;;;5.05;1.20;;;;;;;;;;5029442;28;20115;-72
2022/05/24 09:09:10;;;;;;;3.22;0.40;;;;;;;;;;5029416;28;20048;-71
2022/05/24 09:11:47;;;;;;;1.65;0.50;;;;;;;;;;5029394;28;20064;-71
2022/05/24 09:14:24;;;;;;;0.55;0.30;;;;;;;;;;5028748;28;20094;-71
2022/05/24 09:17:08;;;;;;;0.98;0.40;;;;;;;;;;5028461;28;20166;-71
2022/05/24 09:19:36;;;;;;;1.15;0.25;;;;;;;;;;5024590;28;20036;-71
2022/05/24 09:22:06;;;;;;;1.58;0.45;;;;;;;;;;5027145;28;20037;-72
2022/05/24 09:24:41;;;;;;;5.95;0.43;;;;;;;;;;5026367;28;20045;-72
2022/05/24 09:27:16;;;;;;;1.13;0.40;;;;;;;;;;5027300;28;20685;-71
2022/05/24 09:30:04;;;;;;;0.95;0.38;;;;;;;;;;5028034;28;20078;-72
2022/05/24 09:32:38;;;;;;;0.95;0.43;;;;;;;;;;5026017;28;20041;-72
2022/05/24 09:35:26;;;;;;;2.10;0.32;;;;;;;;;;5025205;28;20045;-71
2022/05/24 09:38:02;;;;;;;2.05;0.38;;;;;;;;;;5028614;28;20041;-72
2022/05/24 09:40:28;;;;;;;1.08;0.40;;;;;;;;;;5026630;28;20045;-73
2022/05/24 09:42:53;;;;;;;2.03;0.30;;;;;;;;;;5026683;28;20417;-72
2022/05/24 09:45:24;;;;;;;0.75;0.50;;;;;;;;;;5027595;28;20784;-72
2022/05/24 09:47:59;;;;;;;1.50;0.22;;;;;;;;;;5026863;28;20048;-72
2022/05/24 09:50:36;;;;;;;0.20;0.20;;;;;;;;;;5028354;28;20446;-72
2022/05/24 09:53:02;;;;;;;1.02;0.32;;;;;;;;;;5027287;28;20485;-73
2022/05/24 09:55:51;;;;;;;0.93;0.30;;;;;;;;;;5024415;28;20330;-72
2022/05/24 09:58:33;;;;;;;2.53;0.50;;;;;;;;;;5027939;28;21015;-72
2022/05/24 10:01:10;;;;;;;4.30;0.40;;;;;;;;;;5023296;28;20690;-72
2022/05/24 10:03:38;;;;;;;2.05;0.60;;;;;;;;;;5009284;28;20045;-72
2022/05/24 10:06:11;;;;;;;1.38;0.55;;;;;;;;;;5026185;28;20076;-71
2022/05/24 10:08:46;;;;;;;0.88;0.60;;;;;;;;;;5027406;28;20067;-71
2022/05/24 10:11:40;;;;;;;2.33;0.52;;;;;;;;;;5028105;28;20394;-71
2022/05/24 10:14:24;;;;;;;2.80;0.73;;;;;;;;;;5024233;28;20069;-71
2022/05/24 10:17:04;;;;;;;1.27;0.45;;;;;;;;;;5024093;28;20049;-72
2022/05/24 10:19:38;;;;;;;1.23;0.57;;;;;;;;;;5024259;28;20036;-73
2022/05/24 10:22:12;;;;;;;2.42;0.70;;;;;;;;;;5023203;28;20037;-71
2022/05/24 10:24:57;;;;;;;1.60;0.40;;;;;;;;;;5022206;28;20495;-72
2022/05/24 10:27:28;;;;;;;0.88;0.45;;;;;;;;;;5021391;28;20044;-72
2022/05/24 10:30:23;;;;;;;1.10;0.50;;;;;;;;;;5023321;28;20037;-73
2022/05/24 10:39:06;;;;;;;2.75;0.50;;;;;;;;;;5022872;28;20417;-72
2022/05/24 10:41:50;;;;;;;0.80;0.40;;;;;;;;;;5024495;28;22533;-72
2022/05/24 10:44:25;;;;;;;1.08;0.70;;;;;;;;;;5023045;28;20063;-72
2022/05/24 10:47:10;;;;;;;0.98;0.55;;;;;;;;;;5024609;28;20091;-73
2022/05/24 10:49:46;;;;;;;1.45;0.60;;;;;;;;;;5026312;28;20271;-72
2022/05/24 10:52:30;;;;;;;2.65;0.50;;;;;;;;;;5020961;28;20037;-70
2022/05/24 10:55:02;;;;;;;0.38;0.32;;;;;;;;;;5016287;28;20045;-72
2022/05/24 10:57:41;;;;;;;2.97;0.50;;;;;;;;;;5016416;28;20036;-70
2022/05/24 11:00:19;;;;;;;1.27;0.20;;;;;;;;;;5023267;28;20041;-73
2022/05/24 11:02:57;;;;;;;1.17;0.50;;;;;;;;;;5020794;28;20045;-71
2022/05/24 11:05:39;;;;;;;1.08;0.63;;;;;;;;;;5013537;28;20029;-71
2022/05/24 11:08:29;;;;;;;2.17;0.47;;;;;;;;;;5025650;28;20033;-71
2022/05/24 11:10:57;;;;;;;2.45;0.45;;;;;;;;;;5025538;28;20063;-72
2022/05/24 11:13:38;;;;;;;1.77;0.20;;;;;;;;;;5025299;28;20075;-72
2022/05/24 11:16:12;;;;;;;0.55;0.30;;;;;;;;;;5020133;28;20045;-71
2022/05/24 11:18:40;;;;;;;1.08;0.40;;;;;;;;;;5005987;28;20037;-71
2022/05/24 11:21:12;;;;;;;1.38;0.40;;;;;;;;;;5021277;28;20140;-73
2022/05/24 11:23:46;;;;;;;0.57;0.30;;;;;;;;;;5025679;28;20029;-72
2022/05/24 11:26:24;;;;;;;2.25;0.50;;;;;;;;;;5015892;28;21625;-72
2022/05/24 11:28:56;;;;;;;4.32;0.60;;;;;;;;;;5003303;28;20382;-72
2022/05/24 11:31:41;;;;;;;1.63;0.57;;;;;;;;;;5012211;28;20091;-72
2022/05/24 11:34:29;;;;;;;2.13;0.30;;;;;;;;;;5010945;28;20171;-73
2022/05/24 11:37:14;;;;;;;1.92;0.60;;;;;;;;;;5024294;28;20102;-71
2022/05/24 11:39:42;;;;;;;1.83;0.77;;;;;;;;;;5021556;28;20111;-73
2022/05/24 11:42:25;;;;;;;0.80;0.32;;;;;;;;;;5025317;28;20072;-72
2022/05/24 11:44:54;;;;;;;1.70;0.30;;;;;;;;;;5005703;28;20525;-73
2022/05/24 11:47:34;;;;;;;2.40;0.55;;;;;;;;;;5022997;28;20078;-72
2022/05/24 11:50:05;;;;;;;2.25;0.60;;;;;;;;;;5025293;28;20029;-72
2022/05/24 11:52:45;;;;;;;1.33;0.47;;;;;;;;;;5008862;28;20037;-72
2022/05/24 11:55:51;;;;;;;0.90;0.40;;;;;;;;;;5024488;28;20387;-72
2022/05/24 11:58:19;;;;;;;3.08;0.38;;;;;;;;;;5026240;28;20128;-73
2022/05/24 12:01:01;;;;;;;0.82;0.38;;;;;;;;;;5024984;28;20041;-73
2022/05/24 12:09:21;;;;;;;1.58;0.40;;;;;;;;;;5024830;28;20048;-72
2022/05/24 12:11:48;;;;;;;1.00;0.35;;;;;;;;;;5023732;28;20063;-72
2022/05/24 12:14:39;;;;;;;1.45;0.28;;;;;;;;;;5002581;28;20484;-69
2022/05/24 12:17:05;;;;;;;0.77;0.30;;;;;;;;;;5026747;28;20021;-72
2022/05/24 12:19:43;;;;;;;0.85;0.50;;;;;;;;;;5026139;28;20047;-71
2022/05/24 12:22:17;;;;;;;3.42;0.57;;;;;;;;;;5025514;28;20231;-71
2022/05/24 12:24:55;;;;;;;1.23;0.40;;;;;;;;;;5009308;28;20044;-71
2022/05/24 12:27:42;;;;;;;2.45;0.57;;;;;;;;;;5029152;28;21233;-72
2022/05/24 12:30:17;;;;;;;0.98;0.30;;;;;;;;;;5030342;28;20511;-72
2022/05/24 12:32:42;;;;;;;1.67;0.40;;;;;;;;;;5028403;28;20083;-72
2022/05/24 12:35:11;;;;;;;0.38;0.30;;;;;;;;;;5028281;28;20362;-72
2022/05/24 12:37:44;;;;;;;1.92;0.50;;;;;;;;;;5028438;28;20556;-72
2022/05/24 12:40:20;;;;;;;0.50;0.35;;;;;;;;;;5028690;28;20037;-72
2022/05/24 12:42:52;;;;;;;2.42;0.50;;;;;;;;;;5029296;28;20088;-72
2022/05/24 12:45:31;;;;;;;1.95;0.50;;;;;;;;;;5027498;28;20079;-73
2022/05/24 12:47:57;;;;;;;1.13;0.43;;;;;;;;;;5027442;28;20572;-73
2022/05/24 12:50:41;;;;;;;1.77;0.50;;;;;;;;;;5011328;28;20044;-72
2022/05/24 12:53:09;;;;;;;2.85;0.50;;;;;;;;;;5032780;28;20040;-73
2022/05/24 12:55:55;;;;;;;1.55;0.40;;;;;;;;;;5031139;28;20063;-73
2022/05/24 12:58:39;;;;;;;0.57;0.40;;;;;;;;;;5028361;28;20094;-73
2022/05/24 13:01:10;;;;;;;0.80;0.40;;;;;;;;;;5026868;28;20103;-72
2022/05/24 13:03:36;;;;;;;0.70;0.40;;;;;;;;;;5027869;28;21287;-70
2022/05/24 13:06:02;;;;;;;2.55;0.43;;;;;;;;;;5027759;28;20128;-73
2022/05/24 13:08:28;;;;;;;1.42;0.47;;;;;;;;;;5027562;28;20411;-72
2022/05/24 13:10:55;;;;;;;2.08;0.47;;;;;;;;;;5027221;28;20151;-72
2022/05/24 13:13:22;;;;;;;0.60;0.40;;;;;;;;;;5007871;28;20668;-73
2022/05/24 13:15:50;;;;;;;2.88;0.40;;;;;;;;;;5026576;28;20123;-70
2022/05/24 13:18:31;;;;;;;2.55;0.60;;;;;;;;;;5020312;28;20128;-72
2022/05/24 13:21:22;;;;;;;2.20;0.50;;;;;;;;;;5009406;28;20061;-71
2022/05/24 13:23:48;;;;;;;1.98;0.60;;;;;;;;;;5029672;28;20064;-73
2022/05/24 13:26:17;;;;;;;1.30;0.30;;;;;;;;;;5026691;28;20067;-70
2022/05/24 13:28:46;;;;;;;3.35;0.40;;;;;;;;;;5015763;28;20033;-73
2022/05/24 13:34:17;;;;;;;1.85;0.68;;;;;;;;;;5026927;28;20067;-72
2022/05/24 13:36:51;;;;;;;1.25;0.30;;;;;;;;;;5008158;28;20049;-72
2022/05/24 13:39:23;;;;;;;1.08;0.30;;;;;;;;;;5005014;28;20378;-71
2022/05/24 13:42:05;;;;;;;0.95;0.45;;;;;;;;;;5000362;28;20048;-73
2022/05/24 13:44:33;;;;;;;0.50;0.40;;;;;;;;;;5008431;28;20033;-72
2022/05/24 13:47:04;;;;;;;0.77;0.52;;;;;;;;;;5023261;28;20279;-73
2022/05/24 13:49:37;;;;;;;0.63;0.50;;;;;;;;;;5020089;28;20214;-70
2022/05/24 13:52:12;;;;;;;;;;;;;;;;;;4996256;28;20049;-70
2022/05/24 13:54:39;;;;;;;2.65;0.52;;;;;;;;;;5009089;28;20011;-72
2022/05/24 13:57:07;;;;;;;2.05;0.40;;;;;;;;;;4990800;28;20041;-72
2022/05/24 13:59:33;;;;;;;0.98;0.47;;;;;;;;;;5009779;28;20481;-73
2022/05/24 14:02:15;;;;;;;0.30;0.30;;;;;;;;;;5020636;28;20032;-71
2022/05/24 14:04:42;;;;;;;1.20;0.50;;;;;;;;;;5005608;28;20131;-74
2022/05/24 14:07:11;;;;;;;5.03;0.60;;;;;;;;;;5020581;28;20041;-72
2022/05/24 14:09:37;;;;;;;5.68;0.40;;;;;;;;;;5024532;28;20131;-72
2022/05/24 14:12:05;;;;;;;1.10;0.40;;;;;;;;;;5025626;28;20145;-73
2022/05/24 14:14:32;;;;;;;2.97;0.60;;;;;;;;;;5025002;28;20037;-73
2022/05/24 14:16:58;;;;;;;4.65;0.30;;;;;;;;;;5026007;28;20083;-73
2022/05/24 14:19:24;;;;;;;1.92;0.50;;;;;;;;;;5025522;28;20079;-71
2022/05/24 14:21:54;;;;;;;1.20;0.50;;;;;;;;;;5024252;28;20047;-72
2022/05/24 14:24:21;;;;;;;0.80;0.52;;;;;;;;;;5023462;28;20084;-73
2022/05/24 14:26:55;;;;;;;0.50;0.30;;;;;;;;;;5024050;28;20483;-72
2022/05/24 14:29:21;;;;;;;0.75;0.50;;;;;;;;;;5009534;28;20033;-72
2022/05/24 14:31:48;;;;;;;0.55;0.30;;;;;;;;;;5027000;28;20063;-70
2022/05/24 14:34:17;;;;;;;2.00;0.40;;;;;;;;;;5020830;28;20047;-69
2022/05/24 14:36:44;;;;;;;0.95;0.30;;;;;;;;;;5024357;28;20136;-72
2022/05/24 14:39:11;;;;;;;2.35;0.40;;;;;;;;;;5026421;28;20049;-71
2022/05/24 14:41:38;;;;;;;0.70;0.30;;;;;;;;;;5003442;28;20037;-72
2022/05/24 14:44:11;;;;;;;1.17;0.40;;;;;;;;;;5006436;28;20123;-71
2022/05/24 14:46:37;;;;;;;;;;;;;;;;;;5004045;28;20036;-72
2022/05/24 14:49:04;;;;;;;0.57;0.40;;;;;;;;;;5002370;28;19931;-72
2022/05/24 14:51:32;;;;;;;0.90;0.43;;;;;;;;;;5012745;28;20041;-70
2022/05/24 14:54:03;;;;;;;1.85;0.30;;;;;;;;;;5021969;28;20049;-72
2022/05/24 14:56:29;;;;;;;0.40;0.30;;;;;;;;;;5016549;28;20041;-72
2022/05/24 14:58:54;;;;;;;0.65;0.32;;;;;;;;;;5023495;28;20024;-72
2022/05/24 15:01:21;;;;;;;3.08;0.40;;;;;;;;;;5023307;28;20037;-70
2022/05/24 15:03:46;;;;;;;0.73;0.40;;;;;;;;;;5018785;28;20558;-73
2022/05/24 15:06:12;;;;;;;1.08;0.40;;;;;;;;;;5023696;28;20041;-73
2022/05/24 15:16:50;;;;;;;1.27;0.63;;;;;;;;;;5023910;28;20095;-72
2022/05/24 15:19:17;;;;;;;0.65;0.30;;;;;;;;;;5023901;28;20508;-72
2022/05/24 15:21:45;;;;;;;0.35;0.20;;;;;;;;;;5025449;28;20045;-74
2022/05/24 15:24:14;;;;;;;1.27;0.52;;;;;;;;;;5021345;28;20514;-73
2022/05/24 15:26:44;;;;;;;1.23;0.88;;;;;;;;;;5024221;28;20498;-72
2022/05/24 15:29:10;;;;;;;1.60;0.40;;;;;;;;;;5024124;28;20094;-72
2022/05/24 15:31:36;;;;;;;0.45;0.40;;;;;;;;;;5023553;28;20041;-72
2022/05/24 15:34:02;;;;;;;1.67;0.40;;;;;;;;;;5024287;28;20468;-73
2022/05/24 15:36:30;;;;;;;3.28;0.50;;;;;;;;;;5023820;28;20079;-72
2022/05/24 15:38:56;;;;;;;0.60;0.40;;;;;;;;;;5023038;28;20620;-72
2022/05/24 15:41:21;;;;;;;2.67;0.50;;;;;;;;;;5023759;28;20496;-72
2022/05/24 15:43:47;;;;;;;2.15;0.60;;;;;;;;;;5023882;28;20155;-72
2022/05/24 15:46:14;;;;;;;0.75;0.60;;;;;;;;;;5024659;28;20390;-73
2022/05/24 15:48:41;;;;;;;0.63;0.50;;;;;;;;;;5022445;28;20044;-73
2022/05/24 15:51:07;;;;;;;0.63;0.50;;;;;;;;;;5022322;28;20384;-72